sensor_id;sensor_type;location;lat;lon;timestamp;P1;durP1;ratioP1;P2;durP2;ratioP2
75419;SDS011;63998;52.488;13.428;2023-04-01T00:00:28;4.00;;;2.40;;
75419;SDS011;63998;52.488;13.428;2023-04-01T00:02:54;2.75;;;1.70;;
75419;SDS011;63998;52.488;13.428;2023-04-01T00:05:19;3.03;;;1.50;;
75419;SDS011;63998;52.488;13.428;2023-04-01T00:07:49;3.38;;;2.00;;
75419;SDS011;63998;52.488;13.428;2023-04-01T00:10:15;4.32;;;2.60;;
75419;SDS011;63998;52.488;13.428;2023-04-01T00:12:40;2.22;;;1.52;;
75419;SDS011;63998;52.488;13.428;2023-04-01T00:15:08;4.35;;;1.98;;
75419;SDS011;63998;52.488;13.428;2023-04-01T00:17:37;2.72;;;1.48;;
75419;SDS011;63998;52.488;13.428;2023-04-01T00:20:03;3.03;;;2.00;;
75419;SDS011;63998;52.488;13.428;2023-04-01T00:22:29;3.85;;;1.63;;
75419;SDS011;63998;52.488;13.428;2023-04-01T00:24:57;4.13;;;1.65;;
75419;SDS011;63998;52.488;13.428;2023-04-01T00:27:22;4.93;;;1.87;;
75419;SDS011;63998;52.488;13.428;2023-04-01T00:29:47;3.53;;;1.98;;
75419;SDS011;63998;52.488;13.428;2023-04-01T00:32:13;5.68;;;1.90;;
75419;SDS011;63998;52.488;13.428;2023-04-01T00:37:07;2.77;;;2.00;;
75419;SDS011;63998;52.488;13.428;2023-04-01T00:39:33;3.97;;;1.98;;
75419;SDS011;63998;52.488;13.428;2023-04-01T00:42:00;3.17;;;2.15;;
75419;SDS011;63998;52.488;13.428;2023-04-01T00:44:30;2.10;;;1.60;;
75419;SDS011;63998;52.488;13.428;2023-04-01T00:46:58;4.90;;;1.90;;
75419;SDS011;63998;52.488;13.428;2023-04-01T00:49:26;2.95;;;1.65;;
75419;SDS011;63998;52.488;13.428;2023-04-01T00:51:55;2.63;;;1.70;;
75419;SDS011;63998;52.488;13.428;2023-04-01T00:54:22;2.58;;;1.50;;
75419;SDS011;63998;52.488;13.428;2023-04-01T00:56:51;3.53;;;1.75;;
75419;SDS011;63998;52.488;13.428;2023-04-01T00:59:24;3.55;;;1.98;;
75419;SDS011;63998;52.488;13.428;2023-04-01T01:01:55;2.95;;;1.75;;
75419;SDS011;63998;52.488;13.428;2023-04-01T01:28:44;2.95;;;2.05;;
75419;SDS011;63998;52.488;13.428;2023-04-01T01:34:11;4.07;;;1.92;;
75419;SDS011;63998;52.488;13.428;2023-04-01T01:36:44;3.20;;;1.83;;
75419;SDS011;63998;52.488;13.428;2023-04-01T01:39:15;3.67;;;1.85;;
75419;SDS011;63998;52.488;13.428;2023-04-01T01:41:42;6.70;;;2.55;;
75419;SDS011;63998;52.488;13.428;2023-04-01T01:44:14;5.57;;;2.47;;
75419;SDS011;63998;52.488;13.428;2023-04-01T01:46:41;3.53;;;2.20;;
75419;SDS011;63998;52.488;13.428;2023-04-01T01:49:11;4.35;;;2.08;;
75419;SDS011;63998;52.488;13.428;2023-04-01T01:51:39;5.03;;;1.80;;
75419;SDS011;63998;52.488;13.428;2023-04-01T01:54:04;4.05;;;1.88;;
75419;SDS011;63998;52.488;13.428;2023-04-01T01:56:36;4.43;;;2.13;;
75419;SDS011;63998;52.488;13.428;2023-04-01T01:59:05;5.72;;;2.15;;
75419;SDS011;63998;52.488;13.428;2023-04-01T02:01:39;4.72;;;1.70;;
75419;SDS011;63998;52.488;13.428;2023-04-01T02:04:06;2.95;;;1.42;;
75419;SDS011;63998;52.488;13.428;2023-04-01T02:06:34;3.45;;;1.95;;
75419;SDS011;63998;52.488;13.428;2023-04-01T02:09:04;3.88;;;1.75;;
75419;SDS011;63998;52.488;13.428;2023-04-01T02:14:22;3.17;;;1.45;;
75419;SDS011;63998;52.488;13.428;2023-04-01T02:21:59;3.17;;;1.95;;
75419;SDS011;63998;52.488;13.428;2023-04-01T02:24:29;3.75;;;1.75;;
75419;SDS011;63998;52.488;13.428;2023-04-01T02:26:56;3.50;;;1.73;;
75419;SDS011;63998;52.488;13.428;2023-04-01T02:29:23;2.20;;;1.65;;
75419;SDS011;63998;52.488;13.428;2023-04-01T02:31:53;2.60;;;1.63;;
75419;SDS011;63998;52.488;13.428;2023-04-01T02:34:20;4.07;;;2.55;;
75419;SDS011;63998;52.488;13.428;2023-04-01T02:36:47;3.15;;;1.98;;
75419;SDS011;63998;52.488;13.428;2023-04-01T02:39:14;6.82;;;2.00;;
75419;SDS011;63998;52.488;13.428;2023-04-01T02:41:41;3.33;;;1.80;;
75419;SDS011;63998;52.488;13.428;2023-04-01T02:44:08;4.95;;;1.75;;
75419;SDS011;63998;52.488;13.428;2023-04-01T02:46:34;3.35;;;1.42;;
75419;SDS011;63998;52.488;13.428;2023-04-01T02:49:00;2.88;;;1.77;;
75419;SDS011;63998;52.488;13.428;2023-04-01T02:51:33;3.53;;;2.20;;
75419;SDS011;63998;52.488;13.428;2023-04-01T02:54:01;3.55;;;2.08;;
75419;SDS011;63998;52.488;13.428;2023-04-01T02:56:27;4.25;;;1.80;;
75419;SDS011;63998;52.488;13.428;2023-04-01T02:58:52;3.47;;;2.07;;
75419;SDS011;63998;52.488;13.428;2023-04-01T03:01:21;4.90;;;2.15;;
75419;SDS011;63998;52.488;13.428;2023-04-01T03:03:47;3.53;;;2.08;;
75419;SDS011;63998;52.488;13.428;2023-04-01T03:06:13;3.65;;;1.95;;
75419;SDS011;63998;52.488;13.428;2023-04-01T03:08:39;3.78;;;1.90;;
75419;SDS011;63998;52.488;13.428;2023-04-01T03:11:09;4.82;;;2.55;;
75419;SDS011;63998;52.488;13.428;2023-04-01T03:13:35;4.32;;;1.65;;
75419;SDS011;63998;52.488;13.428;2023-04-01T03:16:01;4.97;;;2.67;;
75419;SDS011;63998;52.488;13.428;2023-04-01T03:18:26;4.17;;;1.90;;
75419;SDS011;63998;52.488;13.428;2023-04-01T03:20:52;3.70;;;1.87;;
75419;SDS011;63998;52.488;13.428;2023-04-01T03:23:19;3.87;;;2.03;;
75419;SDS011;63998;52.488;13.428;2023-04-01T03:25:48;4.80;;;2.20;;
75419;SDS011;63998;52.488;13.428;2023-04-01T03:28:16;5.30;;;2.83;;
75419;SDS011;63998;52.488;13.428;2023-04-01T03:30:41;3.85;;;2.10;;
75419;SDS011;63998;52.488;13.428;2023-04-01T03:33:06;2.73;;;2.00;;
75419;SDS011;63998;52.488;13.428;2023-04-01T03:35:34;7.00;;;2.08;;
75419;SDS011;63998;52.488;13.428;2023-04-01T03:38:02;4.25;;;2.60;;
75419;SDS011;63998;52.488;13.428;2023-04-01T03:40:30;5.05;;;3.10;;
75419;SDS011;63998;52.488;13.428;2023-04-01T03:42:55;5.67;;;2.50;;
75419;SDS011;63998;52.488;13.428;2023-04-01T03:45:21;3.45;;;2.15;;
75419;SDS011;63998;52.488;13.428;2023-04-01T03:47:46;3.70;;;2.35;;
75419;SDS011;63998;52.488;13.428;2023-04-01T03:50:14;4.65;;;2.42;;
75419;SDS011;63998;52.488;13.428;2023-04-01T03:52:41;5.38;;;2.97;;
75419;SDS011;63998;52.488;13.428;2023-04-01T03:55:06;3.63;;;2.07;;
75419;SDS011;63998;52.488;13.428;2023-04-01T03:57:32;5.10;;;1.98;;
75419;SDS011;63998;52.488;13.428;2023-04-01T03:59:58;5.90;;;2.10;;
75419;SDS011;63998;52.488;13.428;2023-04-01T04:02:23;3.50;;;2.70;;
75419;SDS011;63998;52.488;13.428;2023-04-01T04:04:48;4.60;;;2.40;;
75419;SDS011;63998;52.488;13.428;2023-04-01T04:07:14;5.20;;;2.43;;
75419;SDS011;63998;52.488;13.428;2023-04-01T04:09:39;3.88;;;2.05;;
75419;SDS011;63998;52.488;13.428;2023-04-01T04:12:07;3.58;;;2.40;;
75419;SDS011;63998;52.488;13.428;2023-04-01T04:14:37;5.85;;;2.50;;
75419;SDS011;63998;52.488;13.428;2023-04-01T04:17:05;3.90;;;2.23;;
75419;SDS011;63998;52.488;13.428;2023-04-01T04:19:33;5.63;;;2.38;;
75419;SDS011;63998;52.488;13.428;2023-04-01T04:21:59;3.67;;;2.35;;
75419;SDS011;63998;52.488;13.428;2023-04-01T04:24:26;2.95;;;2.20;;
75419;SDS011;63998;52.488;13.428;2023-04-01T04:26:52;4.90;;;2.60;;
75419;SDS011;63998;52.488;13.428;2023-04-01T04:29:22;4.65;;;2.92;;
75419;SDS011;63998;52.488;13.428;2023-04-01T04:31:47;5.60;;;2.70;;
75419;SDS011;63998;52.488;13.428;2023-04-01T04:34:13;6.33;;;3.10;;
75419;SDS011;63998;52.488;13.428;2023-04-01T04:36:38;3.90;;;2.30;;
75419;SDS011;63998;52.488;13.428;2023-04-01T04:39:03;6.00;;;3.20;;
75419;SDS011;63998;52.488;13.428;2023-04-01T04:41:29;5.78;;;2.97;;
75419;SDS011;63998;52.488;13.428;2023-04-01T04:43:54;5.93;;;2.93;;
75419;SDS011;63998;52.488;13.428;2023-04-01T04:46:21;4.30;;;2.60;;
75419;SDS011;63998;52.488;13.428;2023-04-01T04:48:49;6.05;;;2.75;;
75419;SDS011;63998;52.488;13.428;2023-04-01T04:51:18;4.32;;;3.03;;
75419;SDS011;63998;52.488;13.428;2023-04-01T04:53:44;6.22;;;3.20;;
75419;SDS011;63998;52.488;13.428;2023-04-01T04:56:10;6.43;;;2.67;;
75419;SDS011;63998;52.488;13.428;2023-04-01T04:58:36;5.70;;;2.78;;
75419;SDS011;63998;52.488;13.428;2023-04-01T05:01:05;5.35;;;3.00;;
75419;SDS011;63998;52.488;13.428;2023-04-01T05:03:38;7.07;;;2.83;;
75419;SDS011;63998;52.488;13.428;2023-04-01T05:06:04;6.35;;;3.20;;
75419;SDS011;63998;52.488;13.428;2023-04-01T05:08:34;3.78;;;2.65;;
75419;SDS011;63998;52.488;13.428;2023-04-01T05:11:01;4.45;;;3.10;;
75419;SDS011;63998;52.488;13.428;2023-04-01T05:13:27;6.15;;;2.60;;
75419;SDS011;63998;52.488;13.428;2023-04-01T05:15:55;8.93;;;3.17;;
75419;SDS011;63998;52.488;13.428;2023-04-01T05:18:20;5.85;;;2.95;;
75419;SDS011;63998;52.488;13.428;2023-04-01T05:20:50;5.95;;;2.95;;
75419;SDS011;63998;52.488;13.428;2023-04-01T05:23:16;6.32;;;3.50;;
75419;SDS011;63998;52.488;13.428;2023-04-01T05:25:48;8.75;;;3.55;;
75419;SDS011;63998;52.488;13.428;2023-04-01T05:28:17;5.10;;;3.17;;
75419;SDS011;63998;52.488;13.428;2023-04-01T05:30:43;5.30;;;3.33;;
75419;SDS011;63998;52.488;13.428;2023-04-01T05:33:12;5.72;;;3.25;;
75419;SDS011;63998;52.488;13.428;2023-04-01T05:35:38;6.05;;;3.00;;
75419;SDS011;63998;52.488;13.428;2023-04-01T05:38:09;5.20;;;2.63;;
75419;SDS011;63998;52.488;13.428;2023-04-01T05:40:34;6.63;;;3.37;;
75419;SDS011;63998;52.488;13.428;2023-04-01T05:42:59;6.63;;;3.28;;
75419;SDS011;63998;52.488;13.428;2023-04-01T05:45:25;6.15;;;3.03;;
75419;SDS011;63998;52.488;13.428;2023-04-01T05:47:52;5.85;;;2.95;;
75419;SDS011;63998;52.488;13.428;2023-04-01T05:50:17;5.20;;;3.47;;
75419;SDS011;63998;52.488;13.428;2023-04-01T05:52:43;6.78;;;3.50;;
75419;SDS011;63998;52.488;13.428;2023-04-01T05:55:13;6.50;;;3.92;;
75419;SDS011;63998;52.488;13.428;2023-04-01T05:57:38;6.35;;;3.05;;
75419;SDS011;63998;52.488;13.428;2023-04-01T06:00:03;5.63;;;3.10;;
75419;SDS011;63998;52.488;13.428;2023-04-01T06:02:29;4.05;;;3.00;;
75419;SDS011;63998;52.488;13.428;2023-04-01T06:05:09;5.93;;;3.30;;
75419;SDS011;63998;52.488;13.428;2023-04-01T06:07:44;7.22;;;2.85;;
75419;SDS011;63998;52.488;13.428;2023-04-01T06:10:20;4.22;;;2.60;;
75419;SDS011;63998;52.488;13.428;2023-04-01T06:15:48;7.00;;;2.80;;
75419;SDS011;63998;52.488;13.428;2023-04-01T06:35:28;7.18;;;2.80;;
75419;SDS011;63998;52.488;13.428;2023-04-01T06:43:20;7.25;;;3.42;;
75419;SDS011;63998;52.488;13.428;2023-04-01T06:46:06;7.07;;;3.20;;
75419;SDS011;63998;52.488;13.428;2023-04-01T06:54:10;8.65;;;4.45;;
75419;SDS011;63998;52.488;13.428;2023-04-01T06:56:40;5.43;;;3.10;;
75419;SDS011;63998;52.488;13.428;2023-04-01T06:59:17;6.47;;;3.55;;
75419;SDS011;63998;52.488;13.428;2023-04-01T07:01:47;6.28;;;3.08;;
75419;SDS011;63998;52.488;13.428;2023-04-01T07:04:20;5.40;;;3.28;;
75419;SDS011;63998;52.488;13.428;2023-04-01T07:06:58;6.97;;;3.75;;
75419;SDS011;63998;52.488;13.428;2023-04-01T07:09:32;9.27;;;3.38;;
75419;SDS011;63998;52.488;13.428;2023-04-01T07:12:50;7.95;;;4.05;;
75419;SDS011;63998;52.488;13.428;2023-04-01T07:15:16;7.93;;;3.60;;
75419;SDS011;63998;52.488;13.428;2023-04-01T07:17:45;8.68;;;3.80;;
75419;SDS011;63998;52.488;13.428;2023-04-01T07:20:23;7.03;;;3.33;;
75419;SDS011;63998;52.488;13.428;2023-04-01T07:22:56;7.50;;;3.35;;
75419;SDS011;63998;52.488;13.428;2023-04-01T07:25:25;5.22;;;2.70;;
75419;SDS011;63998;52.488;13.428;2023-04-01T07:27:56;6.65;;;3.50;;
75419;SDS011;63998;52.488;13.428;2023-04-01T07:30:33;5.10;;;3.00;;
75419;SDS011;63998;52.488;13.428;2023-04-01T07:41:12;6.97;;;3.20;;
75419;SDS011;63998;52.488;13.428;2023-04-01T07:49:37;7.30;;;3.63;;
75419;SDS011;63998;52.488;13.428;2023-04-01T08:05:18;9.90;;;4.37;;
75419;SDS011;63998;52.488;13.428;2023-04-01T08:10:41;5.78;;;3.45;;
75419;SDS011;63998;52.488;13.428;2023-04-01T08:18:37;6.03;;;3.30;;
75419;SDS011;63998;52.488;13.428;2023-04-01T08:21:31;4.45;;;2.60;;
75419;SDS011;63998;52.488;13.428;2023-04-01T08:24:00;6.28;;;2.92;;
75419;SDS011;63998;52.488;13.428;2023-04-01T08:26:41;7.45;;;2.78;;
75419;SDS011;63998;52.488;13.428;2023-04-01T08:29:11;6.80;;;3.42;;
75419;SDS011;63998;52.488;13.428;2023-04-01T08:31:48;5.25;;;3.10;;
75419;SDS011;63998;52.488;13.428;2023-04-01T08:34:24;4.78;;;3.38;;
75419;SDS011;63998;52.488;13.428;2023-04-01T08:36:59;2.88;;;2.05;;
75419;SDS011;63998;52.488;13.428;2023-04-01T08:39:31;3.25;;;2.03;;
75419;SDS011;63998;52.488;13.428;2023-04-01T08:55:30;5.65;;;3.42;;
75419;SDS011;63998;52.488;13.428;2023-04-01T09:01:11;5.60;;;3.60;;
75419;SDS011;63998;52.488;13.428;2023-04-01T09:03:53;6.28;;;3.67;;
75419;SDS011;63998;52.488;13.428;2023-04-01T09:06:51;5.22;;;3.45;;
75419;SDS011;63998;52.488;13.428;2023-04-01T09:34:26;5.57;;;3.75;;
75419;SDS011;63998;52.488;13.428;2023-04-01T09:40:21;6.53;;;4.40;;
75419;SDS011;63998;52.488;13.428;2023-04-01T09:48:46;9.50;;;5.82;;
75419;SDS011;63998;52.488;13.428;2023-04-01T10:47:48;6.97;;;5.38;;
75419;SDS011;63998;52.488;13.428;2023-04-01T11:04:23;16.13;;;11.20;;
75419;SDS011;63998;52.488;13.428;2023-04-01T11:07:19;8.48;;;6.57;;
75419;SDS011;63998;52.488;13.428;2023-04-01T11:21:47;14.43;;;11.27;;
75419;SDS011;63998;52.488;13.428;2023-04-01T11:30:26;5.32;;;4.38;;
75419;SDS011;63998;52.488;13.428;2023-04-01T11:41:13;3.50;;;2.95;;
75419;SDS011;63998;52.488;13.428;2023-04-01T12:00:43;5.45;;;3.97;;
75419;SDS011;63998;52.488;13.428;2023-04-01T12:09:13;4.70;;;3.83;;
75419;SDS011;63998;52.488;13.428;2023-04-01T12:14:43;6.15;;;4.45;;
75419;SDS011;63998;52.488;13.428;2023-04-01T12:17:15;6.55;;;5.43;;
75419;SDS011;63998;52.488;13.428;2023-04-01T12:30:21;5.78;;;3.88;;
75419;SDS011;63998;52.488;13.428;2023-04-01T12:50:35;14.05;;;8.65;;
75419;SDS011;63998;52.488;13.428;2023-04-01T12:55:53;11.50;;;6.85;;
75419;SDS011;63998;52.488;13.428;2023-04-01T13:17:34;7.03;;;5.25;;
75419;SDS011;63998;52.488;13.428;2023-04-01T13:20:16;16.67;;;10.88;;
75419;SDS011;63998;52.488;13.428;2023-04-01T13:26:00;13.82;;;9.50;;
75419;SDS011;63998;52.488;13.428;2023-04-01T13:31:38;8.43;;;5.57;;
75419;SDS011;63998;52.488;13.428;2023-04-01T13:34:39;17.73;;;11.95;;
75419;SDS011;63998;52.488;13.428;2023-04-01T13:43:02;8.68;;;5.88;;
75419;SDS011;63998;52.488;13.428;2023-04-01T13:45:38;7.47;;;4.88;;
75419;SDS011;63998;52.488;13.428;2023-04-01T13:48:25;9.68;;;7.13;;
75419;SDS011;63998;52.488;13.428;2023-04-01T13:51:05;13.27;;;9.63;;
75419;SDS011;63998;52.488;13.428;2023-04-01T13:54:12;9.68;;;7.25;;
75419;SDS011;63998;52.488;13.428;2023-04-01T13:57:12;30.83;;;20.10;;
75419;SDS011;63998;52.488;13.428;2023-04-01T14:08:04;23.20;;;17.20;;
75419;SDS011;63998;52.488;13.428;2023-04-01T14:10:34;19.38;;;14.70;;
75419;SDS011;63998;52.488;13.428;2023-04-01T14:16:14;11.07;;;8.00;;
75419;SDS011;63998;52.488;13.428;2023-04-01T14:25:10;9.73;;;7.18;;
75419;SDS011;63998;52.488;13.428;2023-04-01T14:30:46;11.48;;;6.40;;
75419;SDS011;63998;52.488;13.428;2023-04-01T14:33:41;8.52;;;6.40;;
75419;SDS011;63998;52.488;13.428;2023-04-01T14:39:38;8.45;;;5.60;;
75419;SDS011;63998;52.488;13.428;2023-04-01T14:50:55;5.60;;;4.78;;
75419;SDS011;63998;52.488;13.428;2023-04-01T14:53:33;6.97;;;5.03;;
75419;SDS011;63998;52.488;13.428;2023-04-01T14:56:03;8.23;;;5.88;;
75419;SDS011;63998;52.488;13.428;2023-04-01T14:58:46;7.95;;;5.28;;
75419;SDS011;63998;52.488;13.428;2023-04-01T15:09:40;6.13;;;4.18;;
75419;SDS011;63998;52.488;13.428;2023-04-01T15:12:19;7.18;;;5.28;;
75419;SDS011;63998;52.488;13.428;2023-04-01T15:14:55;5.13;;;3.88;;
75419;SDS011;63998;52.488;13.428;2023-04-01T15:28:37;7.55;;;5.57;;
75419;SDS011;63998;52.488;13.428;2023-04-01T15:36:47;6.77;;;5.03;;
75419;SDS011;63998;52.488;13.428;2023-04-01T15:45:00;5.80;;;4.63;;
75419;SDS011;63998;52.488;13.428;2023-04-01T15:47:42;5.88;;;4.30;;
75419;SDS011;63998;52.488;13.428;2023-04-01T15:55:45;5.63;;;4.38;;
75419;SDS011;63998;52.488;13.428;2023-04-01T16:06:45;7.27;;;4.50;;
75419;SDS011;63998;52.488;13.428;2023-04-01T16:12:16;7.15;;;4.80;;
75419;SDS011;63998;52.488;13.428;2023-04-01T16:15:03;7.78;;;5.40;;
75419;SDS011;63998;52.488;13.428;2023-04-01T16:23:35;7.03;;;4.93;;
75419;SDS011;63998;52.488;13.428;2023-04-01T16:26:19;5.80;;;4.85;;
75419;SDS011;63998;52.488;13.428;2023-04-01T16:28:55;5.55;;;4.63;;
75419;SDS011;63998;52.488;13.428;2023-04-01T16:31:32;7.72;;;5.20;;
75419;SDS011;63998;52.488;13.428;2023-04-01T16:37:17;6.70;;;4.88;;
75419;SDS011;63998;52.488;13.428;2023-04-01T16:39:54;6.72;;;4.97;;
75419;SDS011;63998;52.488;13.428;2023-04-01T16:45:16;6.70;;;4.53;;
75419;SDS011;63998;52.488;13.428;2023-04-01T16:55:18;5.35;;;4.82;;
75419;SDS011;63998;52.488;13.428;2023-04-01T16:57:47;5.80;;;4.50;;
75419;SDS011;63998;52.488;13.428;2023-04-01T17:03:08;7.32;;;4.85;;
75419;SDS011;63998;52.488;13.428;2023-04-01T17:05:49;11.57;;;7.07;;
75419;SDS011;63998;52.488;13.428;2023-04-01T17:11:36;6.28;;;5.32;;
75419;SDS011;63998;52.488;13.428;2023-04-01T17:20:01;5.90;;;4.47;;
75419;SDS011;63998;52.488;13.428;2023-04-01T17:22:33;11.13;;;7.00;;
75419;SDS011;63998;52.488;13.428;2023-04-01T17:25:02;26.40;;;11.52;;
75419;SDS011;63998;52.488;13.428;2023-04-01T17:27:50;12.32;;;7.60;;
75419;SDS011;63998;52.488;13.428;2023-04-01T17:43:58;8.60;;;6.10;;
75419;SDS011;63998;52.488;13.428;2023-04-01T17:51:59;7.30;;;5.43;;
75419;SDS011;63998;52.488;13.428;2023-04-01T17:54:38;8.05;;;5.43;;
75419;SDS011;63998;52.488;13.428;2023-04-01T18:02:48;7.00;;;5.07;;
75419;SDS011;63998;52.488;13.428;2023-04-01T18:10:56;7.18;;;5.03;;
75419;SDS011;63998;52.488;13.428;2023-04-01T18:16:28;5.10;;;4.55;;
75419;SDS011;63998;52.488;13.428;2023-04-01T18:27:01;6.75;;;4.72;;
75419;SDS011;63998;52.488;13.428;2023-04-01T18:32:19;4.93;;;4.43;;
75419;SDS011;63998;52.488;13.428;2023-04-01T18:40:46;6.88;;;4.10;;
75419;SDS011;63998;52.488;13.428;2023-04-01T18:43:21;6.82;;;4.63;;
75419;SDS011;63998;52.488;13.428;2023-04-01T18:46:05;6.35;;;4.53;;
75419;SDS011;63998;52.488;13.428;2023-04-01T18:48:38;5.57;;;4.22;;
75419;SDS011;63998;52.488;13.428;2023-04-01T18:53:48;6.60;;;4.05;;
75419;SDS011;63998;52.488;13.428;2023-04-01T19:04:57;7.07;;;4.60;;
75419;SDS011;63998;52.488;13.428;2023-04-01T19:12:50;6.28;;;4.68;;
75419;SDS011;63998;52.488;13.428;2023-04-01T19:21:21;9.65;;;5.32;;
75419;SDS011;63998;52.488;13.428;2023-04-01T19:38:21;6.95;;;4.10;;
75419;SDS011;63998;52.488;13.428;2023-04-01T19:40:53;14.27;;;7.82;;
75419;SDS011;63998;52.488;13.428;2023-04-01T19:49:02;9.05;;;5.15;;
75419;SDS011;63998;52.488;13.428;2023-04-01T19:54:52;8.38;;;5.32;;
75419;SDS011;63998;52.488;13.428;2023-04-01T20:00:14;9.93;;;5.80;;
75419;SDS011;63998;52.488;13.428;2023-04-01T20:05:45;10.48;;;5.63;;
75419;SDS011;63998;52.488;13.428;2023-04-01T20:08:36;8.05;;;4.80;;
75419;SDS011;63998;52.488;13.428;2023-04-01T20:14:07;7.68;;;4.63;;
75419;SDS011;63998;52.488;13.428;2023-04-01T20:19:55;7.55;;;5.03;;
75419;SDS011;63998;52.488;13.428;2023-04-01T20:28:13;7.45;;;4.65;;
75419;SDS011;63998;52.488;13.428;2023-04-01T20:36:36;10.40;;;6.10;;
75419;SDS011;63998;52.488;13.428;2023-04-01T20:53:04;10.13;;;6.00;;
75419;SDS011;63998;52.488;13.428;2023-04-01T21:18:00;9.30;;;6.40;;
75419;SDS011;63998;52.488;13.428;2023-04-01T21:20:48;6.68;;;4.63;;
75419;SDS011;63998;52.488;13.428;2023-04-01T21:28:55;9.40;;;4.85;;
75419;SDS011;63998;52.488;13.428;2023-04-01T21:31:24;8.00;;;4.95;;
75419;SDS011;63998;52.488;13.428;2023-04-01T21:39:01;12.73;;;6.10;;
75419;SDS011;63998;52.488;13.428;2023-04-01T21:47:03;12.02;;;5.50;;
75419;SDS011;63998;52.488;13.428;2023-04-01T22:06:19;12.60;;;6.75;;
75419;SDS011;63998;52.488;13.428;2023-04-01T22:09:07;9.38;;;4.70;;
75419;SDS011;63998;52.488;13.428;2023-04-01T22:17:19;11.30;;;6.07;;
75419;SDS011;63998;52.488;13.428;2023-04-01T22:25:12;13.65;;;6.93;;
75419;SDS011;63998;52.488;13.428;2023-04-01T22:30:24;8.23;;;4.10;;
75419;SDS011;63998;52.488;13.428;2023-04-01T22:32:56;4.90;;;3.60;;
75419;SDS011;63998;52.488;13.428;2023-04-01T22:35:49;4.28;;;3.13;;
75419;SDS011;63998;52.488;13.428;2023-04-01T22:38:30;4.78;;;3.67;;
75419;SDS011;63998;52.488;13.428;2023-04-01T22:41:14;5.00;;;3.20;;
75419;SDS011;63998;52.488;13.428;2023-04-01T22:43:48;5.68;;;2.95;;
75419;SDS011;63998;52.488;13.428;2023-04-01T22:51:48;6.10;;;3.30;;
75419;SDS011;63998;52.488;13.428;2023-04-01T22:54:36;6.03;;;3.17;;
75419;SDS011;63998;52.488;13.428;2023-04-01T23:00:07;4.03;;;2.92;;
75419;SDS011;63998;52.488;13.428;2023-04-01T23:02:41;3.30;;;2.72;;
75419;SDS011;63998;52.488;13.428;2023-04-01T23:05:12;4.25;;;3.13;;
75419;SDS011;63998;52.488;13.428;2023-04-01T23:08:02;4.85;;;3.20;;
75419;SDS011;63998;52.488;13.428;2023-04-01T23:11:00;5.30;;;2.90;;
75419;SDS011;63998;52.488;13.428;2023-04-01T23:13:32;6.53;;;3.50;;
75419;SDS011;63998;52.488;13.428;2023-04-01T23:16:00;4.82;;;2.90;;
75419;SDS011;63998;52.488;13.428;2023-04-01T23:18:27;4.50;;;3.00;;
75419;SDS011;63998;52.488;13.428;2023-04-01T23:21:08;5.45;;;3.30;;
75419;SDS011;63998;52.488;13.428;2023-04-01T23:23:48;6.40;;;3.40;;
75419;SDS011;63998;52.488;13.428;2023-04-01T23:29:03;3.97;;;2.83;;
75419;SDS011;63998;52.488;13.428;2023-04-01T23:31:37;5.65;;;2.88;;
75419;SDS011;63998;52.488;13.428;2023-04-01T23:36:37;3.58;;;2.70;;
75419;SDS011;63998;52.488;13.428;2023-04-01T23:45:03;5.75;;;3.22;;
75419;SDS011;63998;52.488;13.428;2023-04-01T23:47:37;3.05;;;2.03;;
75419;SDS011;63998;52.488;13.428;2023-04-01T23:50:10;4.35;;;2.50;;
75419;SDS011;63998;52.488;13.428;2023-04-01T23:52:40;5.95;;;2.88;;
75419;SDS011;63998;52.488;13.428;2023-04-01T23:58:11;4.18;;;2.80;;
